Campo Grande Airport
SBCG : now visible

Airfield :











YOU CAN JOIN US ON...

 
LOGIN :

Register | Disclaimer

   EN    FR    IT 

 









Legend :    VFR   Marginal VFR   IFR   Intensive IFR   Very Intensive IFR
Visi :
Ceiling :
>= 8 km
>= 3000ft
5 to 8 km
1000 to 3000 ft
1500m to 5 km
500 to 1000 ft
800 to 1500m
200 to 500 ft
< 800m
< 200 ft
Symbols :   Thunderstorms  Fog  Heavy snow  Heavy precipitations  Wind > 20 kt






- Airport Elevation : 1833 ft
- IATA code : CGR


SBCG - Campo Grande

CURRENT METAR :
  • 181900Z 06005KT 340V140 9999 SCT040 FEW045TCU 32/22 Q1014

EXPIRED METARs :
  • 181800Z 09008KT 060V130 9999 BKN040 32/23 Q1015
  • 181700Z 09006KT 9999 BKN035 31/23 Q1016

TAF COR TAF SBCG
Valid from the 18 at 18:00 until the 19 at 18:00 UTC


181530Z 1818/1918 11012KT 9999 SCT040 TX33/1818Z TN21/1908Z
TEMPO 1818/1822 VCSH SCT040 FEW050TCU
BECMG 1822/1824 10005KT CAVOK RMK PEB



MET'MAP, your aeronautical weather chart ! - Copyright ORBIFLY December 2007 - Disclaimer

ORBIFLY MET'MAP TEAM :

Programming & Development : Alexandra Zaïnal
Concept & original design : Baudouin d'Aumeries
Assistance for programming : Marc-Olivier Méhu
Technical & hardware support : Manuel Goepfert

Contact : metmap@orbifly.com




SOURCES & CREDITS :

   NOAA       Earth
Advisory